Time;durP1;ratioP1;P1;durP2;ratioP2;P2;SDS_P1;SDS_P2;PMS_P1;PMS_P2;Temp;Humidity;BMP_temperature;BMP_pressure;BME280_temperature;BME280_humidity;BME280_pressure;Samples;Min_cycle;Max_cycle;Signal;HPM_P1;HPM_P2
2023/10/01 03:01:55;;;;;;;15.65;6.00;;;18.20;84.00;;;;;;5137117;22;20061;-88
2023/10/01 03:04:20;;;;;;;17.08;6.00;;;18.20;84.00;;;;;;5004849;28;20025;-88
2023/10/01 03:06:55;;;;;;;15.43;6.10;;;18.20;83.90;;;;;;4993771;28;20049;-88
2023/10/01 03:09:34;;;;;;;19.33;6.63;;;18.20;84.00;;;;;;4989828;28;20030;-88
2023/10/01 03:15:35;;;;;;;13.50;5.18;;;18.20;83.90;;;;;;5008286;28;20134;-88
2023/10/01 03:17:38;;;;;;;16.50;5.72;;;18.20;83.80;;;;;;4986429;28;20030;-88
2023/10/01 03:23:01;;;;;;;15.55;5.28;;;18.20;83.80;;;;;;4970479;28;20039;-88
2023/10/01 03:25:30;;;;;;;14.07;5.32;;;18.20;83.80;;;;;;4993649;28;20022;-88
2023/10/01 03:28:00;;;;;;;12.85;5.30;;;18.20;83.80;;;;;;5008814;28;20385;-88
2023/10/01 03:30:32;;;;;;;16.25;6.05;;;18.20;83.70;;;;;;5005240;28;20138;-88
2023/10/01 03:33:01;;;;;;;14.38;4.72;;;18.20;83.70;;;;;;5015055;28;20049;-88
2023/10/01 03:35:27;;;;;;;15.20;5.65;;;18.20;83.70;;;;;;5024784;28;20022;-88
2023/10/01 03:38:14;;;;;;;16.00;5.65;;;18.20;83.60;;;;;;5005628;28;20033;-87
2023/10/01 03:43:35;;;;;;;14.68;5.53;;;18.20;83.60;;;;;;5024005;28;20437;-88
2023/10/01 03:46:19;;;;;;;16.05;5.50;;;18.20;83.50;;;;;;5025094;28;20018;-88
2023/10/01 03:48:58;;;;;;;15.50;4.97;;;18.20;83.50;;;;;;5007887;28;20029;-88
2023/10/01 03:51:52;;;;;;;13.30;5.30;;;18.10;83.40;;;;;;5013272;28;20053;-87
2023/10/01 03:54:52;;;;;;;16.63;5.60;;;18.20;83.50;;;;;;5012079;28;20037;-88
2023/10/01 03:57:17;;;;;;;19.00;5.43;;;18.10;83.40;;;;;;5023388;28;20058;-88
2023/10/01 03:59:53;;;;;;;17.42;5.65;;;18.20;83.40;;;;;;5012733;28;20076;-88
2023/10/01 04:05:21;;;;;;;18.02;5.65;;;18.10;83.30;;;;;;5025909;28;20494;-88
2023/10/01 04:07:47;;;;;;;13.18;5.13;;;18.10;83.30;;;;;;5025409;28;20313;-88
2023/10/01 04:10:14;;;;;;;18.70;6.75;;;18.10;83.20;;;;;;5004801;28;20046;-88
2023/10/01 04:12:50;;;;;;;13.38;5.90;;;18.10;83.20;;;;;;5013292;28;20049;-88
2023/10/01 04:15:31;;;;;;;16.52;6.03;;;18.10;83.20;;;;;;5012908;28;20022;-88
2023/10/01 04:18:36;;;;;;;11.63;5.40;;;18.10;83.10;;;;;;5024111;28;20091;-88
2023/10/01 04:23:29;;;;;;;14.63;5.60;;;18.10;83.00;;;;;;5025322;28;20026;-89
2023/10/01 04:26:06;;;;;;;15.70;5.18;;;18.10;83.00;;;;;;5006239;28;20040;-88
2023/10/01 04:28:36;;;;;;;14.55;4.72;;;18.10;83.00;;;;;;5005300;28;20116;-88
2023/10/01 04:31:09;;;;;;;11.10;4.95;;;18.10;83.00;;;;;;5024824;28;20026;-88
2023/10/01 04:33:42;;;;;;;14.23;5.13;;;18.10;82.90;;;;;;5007138;28;20060;-87
2023/10/01 04:36:12;;;;;;;11.43;5.07;;;18.10;82.90;;;;;;5013657;28;20504;-88
2023/10/01 04:38:39;;;;;;;;;;;18.10;82.90;;;;;;5003495;28;20175;-88
2023/10/01 04:41:07;;;;;;;13.63;5.00;;;18.10;82.80;;;;;;5023921;28;19934;-88
2023/10/01 04:43:41;;;;;;;14.07;5.47;;;18.10;82.80;;;;;;5012490;28;20780;-87
2023/10/01 04:46:08;;;;;;;19.65;5.22;;;18.10;82.80;;;;;;5012898;28;20025;-88
2023/10/01 04:48:39;;;;;;;13.85;5.03;;;18.10;82.70;;;;;;5022263;28;20390;-88
2023/10/01 04:51:07;;;;;;;15.27;5.38;;;18.10;82.70;;;;;;5013752;28;20052;-88
2023/10/01 04:53:33;;;;;;;14.60;5.07;;;18.10;82.70;;;;;;5012375;28;20560;-88
2023/10/01 04:56:06;;;;;;;14.50;5.50;;;18.10;82.60;;;;;;5020612;28;20121;-88
2023/10/01 04:58:36;;;;;;;12.98;5.38;;;18.10;82.60;;;;;;5007498;28;20383;-88
2023/10/01 05:01:05;;;;;;;15.52;5.63;;;18.10;82.60;;;;;;5005958;28;20084;-88
2023/10/01 05:03:40;;;;;;;19.58;5.63;;;18.10;82.60;;;;;;5006296;28;20116;-88
2023/10/01 05:06:11;;;;;;;16.85;5.38;;;18.10;82.60;;;;;;5006083;28;20029;-88
2023/10/01 05:08:38;;;;;;;19.83;5.55;;;18.10;82.50;;;;;;5024283;28;20033;-88
2023/10/01 05:11:16;;;;;;;13.43;5.07;;;18.10;82.50;;;;;;5021415;28;20034;-88
2023/10/01 05:13:48;;;;;;;16.13;4.80;;;18.10;82.50;;;;;;5006015;28;20092;-88
2023/10/01 05:16:18;;;;;;;16.70;5.68;;;18.10;82.50;;;;;;5005239;28;20437;-88
2023/10/01 05:18:45;;;;;;;18.67;5.38;;;18.10;82.50;;;;;;5009040;28;20068;-87
2023/10/01 05:21:18;;;;;;;12.02;4.65;;;18.10;82.50;;;;;;5007994;28;20744;-88
2023/10/01 05:23:45;;;;;;;19.60;5.03;;;18.10;82.40;;;;;;5004126;28;20084;-88
2023/10/01 05:26:13;;;;;;;9.57;4.30;;;18.10;82.40;;;;;;5022657;28;20116;-88
2023/10/01 05:28:42;;;;;;;16.42;5.30;;;18.10;82.40;;;;;;5011878;28;20026;-88
2023/10/01 05:31:09;;;;;;;19.83;6.05;;;18.10;82.30;;;;;;5021568;28;20508;-88
2023/10/01 05:33:38;;;;;;;13.32;5.13;;;18.10;82.30;;;;;;5012834;28;20040;-88
2023/10/01 05:36:05;;;;;;;12.57;5.32;;;18.10;82.30;;;;;;5006324;28;20117;-88
2023/10/01 05:38:35;;;;;;;28.83;4.82;;;18.10;82.30;;;;;;5003457;28;20551;-88
2023/10/01 05:41:09;;;;;;;12.05;5.07;;;18.00;82.20;;;;;;5005187;28;20037;-88
2023/10/01 05:43:37;;;;;;;10.88;4.78;;;18.10;82.20;;;;;;5006354;28;20197;-88
2023/10/01 05:46:09;;;;;;;17.67;4.97;;;18.00;82.20;;;;;;5000876;28;20033;-88
2023/10/01 05:48:39;;;;;;;20.77;5.78;;;18.10;82.20;;;;;;5006256;28;20506;-88
2023/10/01 05:51:15;;;;;;;11.20;4.75;;;18.00;82.00;;;;;;5004836;28;20459;-88
2023/10/01 05:53:43;;;;;;;12.98;4.80;;;18.10;82.10;;;;;;5022129;28;20060;-87
2023/10/01 05:56:10;;;;;;;15.40;4.97;;;18.00;82.00;;;;;;5005968;28;20030;-88
2023/10/01 05:58:39;;;;;;;15.27;4.97;;;18.10;82.00;;;;;;5006770;28;20021;-88
2023/10/01 06:01:05;;;;;;;8.75;4.28;;;18.00;82.00;;;;;;5003490;28;20378;-88
2023/10/01 06:03:32;;;;;;;17.50;5.75;;;18.00;82.00;;;;;;5005079;28;20022;-88
2023/10/01 06:05:58;;;;;;;12.95;4.97;;;18.00;82.00;;;;;;5004324;28;20032;-88
2023/10/01 06:08:44;;;;;;;12.05;4.80;;;18.00;81.90;;;;;;5004796;28;20116;-88
2023/10/01 06:11:15;;;;;;;13.23;4.88;;;18.10;81.90;;;;;;5009437;28;20121;-88
2023/10/01 06:13:51;;;;;;;16.05;5.43;;;18.10;81.90;;;;;;5003982;28;20080;-88
2023/10/01 06:16:22;;;;;;;13.55;5.25;;;18.00;81.80;;;;;;5012699;28;20610;-88
2023/10/01 06:18:59;;;;;;;12.23;4.90;;;18.00;81.80;;;;;;5011010;28;20030;-88
2023/10/01 06:21:31;;;;;;;12.60;4.88;;;18.00;81.80;;;;;;5012517;28;20017;-88
2023/10/01 06:24:04;;;;;;;13.20;5.05;;;18.00;81.80;;;;;;5010809;28;20040;-88
2023/10/01 06:26:37;;;;;;;18.40;5.13;;;18.00;81.70;;;;;;5011179;28;20068;-88
2023/10/01 06:29:05;;;;;;;17.05;4.65;;;18.00;81.70;;;;;;5011247;28;20026;-87
2023/10/01 06:31:53;;;;;;;13.85;5.00;;;18.10;81.70;;;;;;5019496;28;20121;-88
2023/10/01 06:34:26;;;;;;;12.52;5.00;;;18.10;81.70;;;;;;5024747;28;20037;-88
2023/10/01 06:36:58;;;;;;;16.23;5.13;;;18.00;81.60;;;;;;5010995;28;20038;-89
2023/10/01 06:39:30;;;;;;;14.07;5.00;;;18.10;81.70;;;;;;5009718;28;20028;-88
2023/10/01 06:44:41;;;;;;;13.63;5.55;;;18.10;81.60;;;;;;5022289;28;20080;-88
2023/10/01 06:47:14;;;;;;;16.02;5.30;;;18.10;81.60;;;;;;5004843;28;20030;-89
2023/10/01 06:49:56;;;;;;;9.35;4.47;;;18.10;81.60;;;;;;5011641;28;20029;-88
2023/10/01 06:52:32;;;;;;;17.80;5.38;;;18.10;81.60;;;;;;5004894;28;20052;-87
2023/10/01 06:54:59;;;;;;;12.35;5.22;;;18.10;81.60;;;;;;5005643;28;20057;-88
2023/10/01 06:57:27;;;;;;;9.60;4.50;;;18.10;81.50;;;;;;5012368;28;20600;-89
2023/10/01 06:59:56;;;;;;;17.50;5.25;;;18.10;81.50;;;;;;5024159;28;20108;-88
2023/10/01 07:02:23;;;;;;;11.52;4.75;;;18.10;81.50;;;;;;5013111;28;20040;-88
2023/10/01 07:04:56;;;;;;;13.80;4.75;;;18.10;81.50;;;;;;5015055;28;20026;-88
2023/10/01 07:07:22;;;;;;;15.38;4.85;;;18.10;81.50;;;;;;5010339;28;20080;-88
2023/10/01 07:09:49;;;;;;;16.30;5.55;;;18.10;81.50;;;;;;5007851;28;20026;-88
2023/10/01 07:12:17;;;;;;;17.35;6.07;;;18.10;81.50;;;;;;5015722;28;20582;-89
2023/10/01 07:14:43;;;;;;;22.48;5.82;;;18.10;81.50;;;;;;5010036;28;20021;-89
2023/10/01 07:17:13;;;;;;;12.68;5.30;;;18.10;81.50;;;;;;5024540;28;20036;-88
2023/10/01 07:19:43;;;;;;;16.02;5.85;;;18.10;81.50;;;;;;5008020;28;20036;-89
2023/10/01 07:22:20;;;;;;;17.10;5.67;;;18.10;81.50;;;;;;5010325;28;20029;-89
2023/10/01 07:24:45;;;;;;;14.35;5.47;;;18.10;81.60;;;;;;5022956;28;20026;-89
2023/10/01 07:27:11;;;;;;;17.00;5.93;;;18.10;81.60;;;;;;5023419;28;20469;-89
2023/10/01 07:29:43;;;;;;;17.75;6.00;;;18.10;81.50;;;;;;5005424;28;20028;-89
2023/10/01 07:32:14;;;;;;;22.33;6.10;;;18.10;81.60;;;;;;5010461;28;20057;-88
2023/10/01 07:34:48;;;;;;;16.98;5.90;;;18.10;81.60;;;;;;5006459;28;20030;-88
2023/10/01 07:37:23;;;;;;;14.90;5.75;;;18.10;81.60;;;;;;5006740;28;20041;-88
2023/10/01 07:40:08;;;;;;;20.55;6.13;;;18.20;81.60;;;;;;5012316;28;20045;-88
2023/10/01 07:42:54;;;;;;;14.32;5.93;;;18.20;81.60;;;;;;5014345;28;20018;-89
2023/10/01 07:45:21;;;;;;;16.58;5.53;;;18.10;81.60;;;;;;5008529;28;20065;-89
2023/10/01 07:47:48;;;;;;;18.80;6.68;;;18.20;81.60;;;;;;5005033;28;20057;-89
2023/10/01 07:50:16;;;;;;;22.00;7.15;;;18.20;81.60;;;;;;5009555;28;20034;-89
2023/10/01 07:52:43;;;;;;;20.02;6.88;;;18.20;81.60;;;;;;5012242;28;20045;-81
2023/10/01 07:58:16;;;;;;;17.58;6.18;;;18.20;81.40;;;;;;5024549;28;20127;-88
2023/10/01 08:00:43;;;;;;;14.55;5.93;;;18.20;81.40;;;;;;5021852;28;20030;-87
2023/10/01 08:05:47;;;;;;;18.98;5.95;;;17.60;81.10;;;;;;5022774;28;20038;-88
2023/10/01 08:08:14;;;;;;;23.70;6.32;;;18.20;81.50;;;;;;5012657;28;20171;-88
2023/10/01 08:10:40;;;;;;;22.67;6.70;;;18.20;81.50;;;;;;5007438;28;20030;-89
2023/10/01 08:13:23;;;;;;;19.92;7.20;;;18.20;81.60;;;;;;5014954;28;20393;-88
2023/10/01 08:15:59;;;;;;;20.08;6.82;;;18.20;81.60;;;;;;5005031;28;20065;-88
2023/10/01 08:18:46;;;;;;;22.98;7.25;;;18.30;81.70;;;;;;5013887;28;20685;-88
2023/10/01 08:21:16;;;;;;;16.00;6.20;;;18.20;81.60;;;;;;5006525;28;20029;-88
2023/10/01 08:23:54;;;;;;;21.85;7.22;;;18.20;81.70;;;;;;5009302;28;20029;-88
2023/10/01 08:29:07;;;;;;;21.77;7.65;;;18.20;81.70;;;;;;5022781;28;20130;-87
2023/10/01 08:34:29;;;;;;;20.02;7.32;;;18.20;81.80;;;;;;5025964;28;20033;-87
2023/10/01 08:37:06;;;;;;;21.58;7.35;;;18.30;82.70;;;;;;5023291;28;20152;-88
2023/10/01 08:39:36;;;;;;;17.63;8.02;;;18.20;81.90;;;;;;5008406;28;20032;-89
2023/10/01 08:42:09;;;;;;;20.10;7.10;;;18.20;81.90;;;;;;5009839;28;20029;-89
2023/10/01 08:44:46;;;;;;;20.10;6.90;;;18.20;82.00;;;;;;5013368;28;20029;-88
2023/10/01 08:47:34;;;;;;;20.40;7.22;;;18.30;82.10;;;;;;5003777;28;20021;-88
2023/10/01 08:52:57;;;;;;;20.60;7.47;;;18.30;82.10;;;;;;5024587;28;20124;-87
2023/10/01 08:59:00;;;;;;;23.95;7.47;;;18.20;82.80;;;;;;5021130;28;20442;-87
2023/10/01 09:01:12;;;;;;;22.25;7.15;;;18.20;82.90;;;;;;5015787;28;20441;-87
2023/10/01 09:03:39;;;;;;;24.17;8.20;;;18.10;83.10;;;;;;5021012;28;20032;-84
2023/10/01 09:06:08;;;;;;;25.52;8.18;;;18.10;83.50;;;;;;5003729;28;20041;-88
2023/10/01 09:08:43;;;;;;;19.25;7.45;;;18.10;83.70;;;;;;5021982;28;20022;-86
2023/10/01 09:11:15;;;;;;;26.15;7.90;;;18.10;84.10;;;;;;5020970;28;20112;-86
2023/10/01 09:13:58;;;;;;;20.23;8.77;;;18.10;84.30;;;;;;5024751;28;20087;-87
2023/10/01 09:16:33;;;;;;;21.08;7.55;;;18.10;84.40;;;;;;5021198;28;20448;-86
2023/10/01 09:21:47;;;;;;;21.83;7.65;;;18.10;84.80;;;;;;5026565;28;20087;-85
2023/10/01 09:24:34;;;;;;;19.83;8.23;;;18.10;85.10;;;;;;5006383;28;20116;-87
2023/10/01 09:27:09;;;;;;;20.92;7.47;;;18.10;85.20;;;;;;5022480;28;20068;-86
2023/10/01 09:29:45;;;;;;;18.52;7.65;;;18.10;85.20;;;;;;5021308;28;20025;-84
2023/10/01 09:32:13;;;;;;;20.13;7.35;;;18.10;85.20;;;;;;5021857;28;20037;-86
2023/10/01 09:34:46;;;;;;;20.25;7.18;;;18.10;85.50;;;;;;5020482;28;20034;-84
2023/10/01 09:37:18;;;;;;;21.73;7.82;;;18.10;86.20;;;;;;5005943;28;20025;-86
2023/10/01 09:39:44;;;;;;;23.20;8.00;;;18.10;85.40;;;;;;5020294;28;20026;-87
2023/10/01 09:42:24;;;;;;;21.77;8.73;;;18.10;85.80;;;;;;5008614;28;20029;-86
2023/10/01 09:44:52;;;;;;;;;;;18.20;86.10;;;;;;5007337;28;20120;-86
2023/10/01 09:47:23;;;;;;;22.05;6.95;;;18.20;86.50;;;;;;5024265;28;20325;-86
2023/10/01 09:49:51;;;;;;;22.10;8.35;;;18.20;86.60;;;;;;5022879;28;20120;-86
2023/10/01 09:52:36;;;;;;;22.83;8.43;;;18.20;86.80;;;;;;5026901;28;20034;-87
2023/10/01 09:55:10;;;;;;;28.33;9.02;;;18.20;86.60;;;;;;5022979;28;20022;-87
2023/10/01 09:57:39;;;;;;;18.27;7.65;;;18.20;86.70;;;;;;5011074;28;20036;-86
2023/10/01 10:00:17;;;;;;;23.33;8.13;;;18.30;86.80;;;;;;5021518;28;20022;-86
2023/10/01 10:02:51;;;;;;;22.63;8.48;;;18.30;87.00;;;;;;5024127;28;20041;-87
2023/10/01 10:05:25;;;;;;;21.20;8.00;;;18.30;87.10;;;;;;5023224;28;20036;-84
2023/10/01 10:07:56;;;;;;;22.13;8.32;;;18.30;88.00;;;;;;5023392;28;20108;-87
2023/10/01 10:10:26;;;;;;;22.58;8.05;;;18.30;87.30;;;;;;5023596;28;20485;-86
2023/10/01 10:12:56;;;;;;;;;;;18.30;87.50;;;;;;5020820;28;20045;-87
2023/10/01 10:15:56;;;;;;;18.80;7.15;;;18.40;87.60;;;;;;5008417;28;19905;-86
2023/10/01 10:18:23;;;;;;;18.52;7.18;;;18.40;88.00;;;;;;5020947;28;20105;-86
2023/10/01 10:21:05;;;;;;;22.83;6.85;;;18.40;87.80;;;;;;5020818;28;20033;-86
2023/10/01 10:23:53;;;;;;;29.40;7.60;;;18.40;87.70;;;;;;5020652;28;20038;-87
2023/10/01 10:26:57;;;;;;;19.58;6.63;;;18.40;87.60;;;;;;5022990;28;20488;-87
2023/10/01 10:29:56;;;;;;;24.08;7.35;;;18.40;87.50;;;;;;4926865;29;20063;-86
2023/10/01 10:32:26;;;;;;;23.42;7.25;;;18.50;87.80;;;;;;4923294;29;20127;-86
2023/10/01 10:35:03;;;;;;;26.13;7.45;;;18.50;87.80;;;;;;4943980;29;20031;-87
2023/10/01 10:37:38;;;;;;;25.48;7.43;;;18.50;88.00;;;;;;4943892;29;20452;-86
2023/10/01 10:42:57;;;;;;;21.17;7.38;;;18.60;87.30;;;;;;4945685;29;20039;-87
2023/10/01 10:45:31;;;;;;;16.45;6.03;;;18.50;86.70;;;;;;4926526;29;20047;-86
2023/10/01 10:48:02;;;;;;;22.45;6.85;;;18.50;86.70;;;;;;4928966;29;20035;-88
2023/10/01 10:50:58;;;;;;;21.80;7.43;;;18.50;86.70;;;;;;4946870;29;20031;-87
2023/10/01 10:53:45;;;;;;;22.08;6.95;;;18.70;86.60;;;;;;4942644;28;20044;-87
2023/10/01 10:56:13;;;;;;;20.83;6.20;;;18.70;86.50;;;;;;4943589;29;20524;-87
2023/10/01 10:59:01;;;;;;;17.13;6.28;;;18.70;86.20;;;;;;4932872;29;20499;-87
2023/10/01 11:01:43;;;;;;;22.60;6.28;;;18.70;85.80;;;;;;4931346;29;20036;-88
2023/10/01 11:04:09;;;;;;;26.98;7.65;;;18.70;85.90;;;;;;4962823;28;20044;-87
2023/10/01 11:06:42;;;;;;;17.48;5.72;;;18.80;85.60;;;;;;5030205;28;20466;-87
2023/10/01 11:11:51;;;;;;;17.45;5.60;;;18.80;85.40;;;;;;5030336;28;20385;-87
2023/10/01 11:14:18;;;;;;;20.90;6.65;;;18.80;85.30;;;;;;5025595;28;20424;-91
2023/10/01 11:16:45;;;;;;;20.52;6.70;;;18.90;85.50;;;;;;5029178;28;20025;-89
2023/10/01 11:19:12;;;;;;;18.60;6.20;;;18.90;84.70;;;;;;5026340;28;20148;-84
2023/10/01 11:21:55;;;;;;;16.95;5.90;;;18.90;84.40;;;;;;5029179;28;20025;-84
2023/10/01 11:24:33;;;;;;;21.40;6.40;;;19.00;83.70;;;;;;5008989;28;20029;-87
2023/10/01 11:27:18;;;;;;;20.85;6.40;;;19.00;83.50;;;;;;5020760;28;20378;-87
2023/10/01 11:29:57;;;;;;;19.48;5.30;;;19.00;83.30;;;;;;5022225;28;20026;-85
2023/10/01 11:32:41;;;;;;;14.52;5.15;;;19.00;83.00;;;;;;5022487;28;20117;-88
2023/10/01 11:35:28;;;;;;;18.55;6.95;;;19.00;82.80;;;;;;5006477;28;20021;-87
2023/10/01 11:37:56;;;;;;;17.85;5.28;;;19.10;83.00;;;;;;5006438;28;20108;-87
2023/10/01 11:40:22;;;;;;;20.45;6.05;;;19.10;82.60;;;;;;5010695;28;20030;-87
2023/10/01 11:43:05;;;;;;;28.70;9.02;;;19.20;82.50;;;;;;5023171;28;20076;-89
2023/10/01 11:45:30;;;;;;;20.85;7.68;;;19.20;82.00;;;;;;5023307;28;20032;-88
2023/10/01 11:48:05;;;;;;;22.08;6.95;;;19.20;82.10;;;;;;5011407;28;20026;-88
2023/10/01 11:50:49;;;;;;;13.60;5.93;;;19.30;81.80;;;;;;5023734;28;20018;-86
2023/10/01 11:53:16;;;;;;;16.95;5.90;;;19.30;80.90;;;;;;5022355;28;20060;-87
2023/10/01 11:55:42;;;;;;;18.55;5.75;;;19.30;79.50;;;;;;5008871;28;20029;-86
2023/10/01 11:58:07;;;;;;;17.42;6.78;;;19.30;79.70;;;;;;5022160;28;20033;-88
2023/10/01 12:03:18;;;;;;;21.00;6.07;;;19.30;80.10;;;;;;5023473;28;20045;-88
2023/10/01 12:05:46;;;;;;;18.95;6.13;;;19.40;80.00;;;;;;5023752;28;20026;-88
2023/10/01 12:08:18;;;;;;;16.15;5.90;;;19.30;80.20;;;;;;5006042;28;20113;-88
2023/10/01 12:10:44;;;;;;;16.40;5.88;;;19.40;80.10;;;;;;5022900;28;20030;-88
2023/10/01 12:13:13;;;;;;;17.25;5.93;;;19.40;80.10;;;;;;5023967;28;20066;-88
2023/10/01 12:15:50;;;;;;;12.27;5.20;;;19.40;79.90;;;;;;5022772;28;20021;-88
2023/10/01 12:18:17;;;;;;;21.15;5.78;;;19.40;79.10;;;;;;5023102;28;20028;-88
2023/10/01 12:20:51;;;;;;;18.50;7.13;;;19.50;79.20;;;;;;5026709;28;20029;-88
2023/10/01 12:23:19;;;;;;;18.60;5.35;;;19.50;78.60;;;;;;5025226;28;20018;-87
2023/10/01 12:26:31;;;;;;;16.02;5.55;;;19.50;78.20;;;;;;5022539;28;20462;-87
2023/10/01 12:29:11;;;;;;;13.67;5.03;;;19.50;78.00;;;;;;5023410;28;20486;-87
2023/10/01 12:31:29;;;;;;;17.42;6.68;;;19.50;78.00;;;;;;5021562;28;20025;-89
2023/10/01 12:34:01;;;;;;;15.13;4.88;;;19.50;77.80;;;;;;5027096;28;20031;-89
2023/10/01 12:36:42;;;;;;;16.67;5.35;;;19.50;77.50;;;;;;5023083;28;20148;-87
2023/10/01 12:44:36;;;;;;;14.35;4.57;;;19.60;76.40;;;;;;5021018;28;20030;-89
2023/10/01 12:47:09;;;;;;;13.15;4.72;;;19.60;74.30;;;;;;5004043;28;20044;-88
2023/10/01 12:49:35;;;;;;;16.40;5.22;;;19.60;73.30;;;;;;5011977;28;20075;-87
2023/10/01 12:52:08;;;;;;;15.43;5.30;;;19.60;72.70;;;;;;5022075;28;20104;-89
2023/10/01 12:54:37;;;;;;;17.80;5.20;;;19.60;72.10;;;;;;5010510;28;20036;-80
2023/10/01 12:57:09;;;;;;;12.13;4.78;;;19.60;71.10;;;;;;5023765;28;20041;-88
2023/10/01 12:59:46;;;;;;;14.15;5.18;;;19.60;70.60;;;;;;5022416;28;20833;-84
2023/10/01 13:02:22;;;;;;;12.02;4.60;;;19.60;71.20;;;;;;5011103;28;20037;-86
2023/10/01 13:04:50;;;;;;;12.40;4.03;;;19.60;71.40;;;;;;5022507;28;20025;-89
2023/10/01 13:07:34;;;;;;;18.25;4.75;;;19.60;71.20;;;;;;5020432;28;20022;-89
2023/10/01 13:10:03;;;;;;;13.68;4.78;;;19.60;70.60;;;;;;5024292;28;20043;-88
2023/10/01 13:12:31;;;;;;;14.82;5.35;;;19.60;67.40;;;;;;5024030;28;20048;-88
2023/10/01 13:15:15;;;;;;;14.93;4.72;;;19.60;68.70;;;;;;5006241;28;20026;-89
2023/10/01 13:17:45;;;;;;;14.27;4.40;;;19.60;69.00;;;;;;5022134;28;20030;-90
2023/10/01 13:20:26;;;;;;;11.25;4.15;;;19.70;68.90;;;;;;5024538;28;20029;-90
2023/10/01 13:22:52;;;;;;;13.10;4.90;;;19.70;68.30;;;;;;5010868;28;20030;-90
2023/10/01 13:25:20;;;;;;;12.50;4.65;;;19.70;67.60;;;;;;5005831;28;20017;-90
2023/10/01 13:27:50;;;;;;;15.13;5.47;;;19.70;67.50;;;;;;5022349;28;20063;-89
2023/10/01 13:30:20;;;;;;;19.35;5.22;;;19.70;67.80;;;;;;5004545;28;20118;-88
2023/10/01 13:33:10;;;;;;;17.90;4.25;;;19.70;67.90;;;;;;5024549;28;20026;-90
2023/10/01 13:35:36;;;;;;;13.05;5.05;;;19.70;68.30;;;;;;5019500;28;20075;-89
2023/10/01 14:11:07;;;;;;;11.98;4.40;;;19.70;64.00;;;;;;5022100;28;20056;-89
2023/10/01 14:13:36;;;;;;;13.75;4.50;;;19.70;63.90;;;;;;5021803;28;20052;-89
2023/10/01 14:16:12;;;;;;;10.45;3.88;;;19.60;63.70;;;;;;5022289;28;20028;-89
2023/10/01 14:18:53;;;;;;;11.32;3.63;;;19.70;62.90;;;;;;5020450;28;20513;-90
2023/10/01 14:21:28;;;;;;;12.93;4.22;;;19.70;63.30;;;;;;5020523;28;20033;-89
2023/10/01 14:23:57;;;;;;;11.52;4.40;;;19.70;63.20;;;;;;5018499;28;20756;-88
2023/10/01 14:26:33;;;;;;;12.13;4.45;;;19.70;62.70;;;;;;5002389;28;20026;-80
2023/10/01 14:28:59;;;;;;;11.82;3.70;;;19.70;62.60;;;;;;5005018;28;20029;-89
2023/10/01 14:34:09;;;;;;;9.82;3.45;;;19.70;60.50;;;;;;5021956;28;20563;-91
2023/10/01 14:36:39;;;;;;;11.50;4.45;;;19.60;59.20;;;;;;5024465;28;20026;-89
2023/10/01 14:39:09;;;;;;;11.57;4.43;;;19.70;58.90;;;;;;5024842;28;20084;-90
2023/10/01 14:41:41;;;;;;;11.88;4.03;;;19.70;58.60;;;;;;5024084;28;20026;-89
2023/10/01 14:44:08;;;;;;;9.90;4.13;;;19.70;59.80;;;;;;5007128;28;20561;-89
2023/10/01 14:46:37;;;;;;;13.75;4.57;;;19.60;60.40;;;;;;5020830;28;20028;-90
2023/10/01 14:49:06;;;;;;;10.05;4.25;;;19.60;60.80;;;;;;5022612;28;20053;-90
2023/10/01 14:51:37;;;;;;;10.03;4.30;;;19.70;60.90;;;;;;5021463;28;20462;-87
2023/10/01 14:54:05;;;;;;;12.23;4.40;;;19.60;61.10;;;;;;5002660;28;20293;-88
2023/10/01 14:56:32;;;;;;;13.52;4.28;;;19.70;60.60;;;;;;5023219;28;20132;-88
2023/10/01 14:59:05;;;;;;;12.57;4.53;;;19.70;61.40;;;;;;5021545;28;20034;-89
2023/10/01 15:01:41;;;;;;;14.95;4.63;;;19.60;61.80;;;;;;5020763;28;20037;-90
2023/10/01 15:04:22;;;;;;;11.63;4.60;;;19.60;63.00;;;;;;5007595;28;21500;-88
2023/10/01 15:06:57;;;;;;;19.63;4.93;;;19.70;62.50;;;;;;5022317;28;20081;-89
2023/10/01 15:09:28;;;;;;;10.35;4.00;;;19.70;63.10;;;;;;5009566;28;20367;-89
2023/10/01 15:11:55;;;;;;;13.40;4.90;;;19.70;63.20;;;;;;5002887;28;20030;-89
2023/10/01 15:14:26;;;;;;;15.23;5.13;;;19.70;63.40;;;;;;5007995;28;20033;-90
2023/10/01 15:16:56;;;;;;;10.23;4.40;;;19.60;63.20;;;;;;5023425;28;20099;-89
2023/10/01 15:19:25;;;;;;;15.55;4.80;;;19.60;63.40;;;;;;5021134;28;20432;-89
2023/10/01 15:22:08;;;;;;;16.05;5.68;;;19.60;63.10;;;;;;5024816;28;20064;-87
2023/10/01 15:24:35;;;;;;;14.85;5.07;;;19.70;63.50;;;;;;5020973;28;20049;-89
2023/10/01 15:27:04;;;;;;;21.20;8.30;;;19.70;63.80;;;;;;5013509;28;20029;-91
2023/10/01 15:29:33;;;;;;;10.60;4.43;;;19.60;63.80;;;;;;5023605;28;20022;-90
2023/10/01 15:31:59;;;;;;;13.65;5.15;;;19.70;64.10;;;;;;5027422;28;20033;-88
2023/10/01 15:34:27;;;;;;;13.52;4.97;;;19.70;64.40;;;;;;5025248;28;20040;-89
2023/10/01 15:36:53;;;;;;;16.90;4.30;;;19.70;64.70;;;;;;5025305;28;20466;-87
2023/10/01 15:42:18;;;;;;;15.05;4.78;;;19.70;64.60;;;;;;5025242;28;20038;-87
2023/10/01 15:44:49;;;;;;;14.18;5.13;;;19.60;64.50;;;;;;5006766;28;20120;-88
2023/10/01 15:50:11;;;;;;;15.18;4.97;;;19.60;64.70;;;;;;5024266;28;20044;-87
2023/10/01 15:52:49;;;;;;;10.93;4.18;;;19.60;64.80;;;;;;5004374;28;20026;-88
2023/10/01 15:55:31;;;;;;;14.20;4.90;;;19.50;64.80;;;;;;5023829;28;20029;-88
2023/10/01 15:58:02;;;;;;;14.25;5.18;;;19.50;64.80;;;;;;5025593;28;20490;-87
2023/10/01 16:00:32;;;;;;;17.35;4.80;;;19.60;64.90;;;;;;5021694;28;20029;-88
2023/10/01 16:03:07;;;;;;;13.45;4.70;;;19.50;65.30;;;;;;5025416;28;20127;-88
2023/10/01 16:05:42;;;;;;;14.00;5.15;;;19.50;65.50;;;;;;5027759;28;20025;-88
2023/10/01 16:08:17;;;;;;;16.05;4.88;;;19.50;65.70;;;;;;5028737;28;20040;-86
2023/10/01 16:10:44;;;;;;;12.70;5.15;;;19.50;65.70;;;;;;5026811;28;20159;-89
2023/10/01 16:13:14;;;;;;;14.93;4.43;;;19.50;65.70;;;;;;5021912;28;20041;-88
2023/10/01 16:15:49;;;;;;;12.50;4.78;;;19.50;65.80;;;;;;5009794;28;20040;-87
2023/10/01 16:18:16;;;;;;;16.55;5.50;;;19.40;66.00;;;;;;5030537;28;20087;-88
2023/10/01 16:20:42;;;;;;;15.90;5.47;;;19.40;66.30;;;;;;5025438;28;20025;-87
2023/10/01 16:23:14;;;;;;;12.57;4.25;;;19.40;66.40;;;;;;5028375;28;20026;-89
2023/10/01 16:25:45;;;;;;;15.15;5.18;;;19.30;66.50;;;;;;5026361;28;20145;-87
2023/10/01 16:28:20;;;;;;;17.65;5.82;;;19.30;67.50;;;;;;5014942;28;20032;-89
2023/10/01 16:31:02;;;;;;;18.40;6.43;;;19.20;66.80;;;;;;5025315;28;20037;-88
2023/10/01 16:33:41;;;;;;;15.73;6.22;;;19.30;67.30;;;;;;5026935;28;20026;-88
2023/10/01 16:36:08;;;;;;;15.02;5.45;;;19.30;67.50;;;;;;5029108;28;20038;-88
2023/10/01 16:38:33;;;;;;;12.68;5.05;;;19.30;67.50;;;;;;5026135;28;20017;-89
2023/10/01 16:41:07;;;;;;;13.35;5.63;;;19.20;67.80;;;;;;5031302;28;20108;-89
2023/10/01 16:43:39;;;;;;;14.73;5.65;;;19.50;68.20;;;;;;5023774;28;20183;-87
2023/10/01 16:46:32;;;;;;;12.13;4.93;;;19.20;68.40;;;;;;5025031;28;20038;-84
2023/10/01 16:49:00;;;;;;;11.70;4.70;;;19.20;69.00;;;;;;5018364;28;20433;-82
2023/10/01 16:51:27;;;;;;;15.23;4.78;;;19.10;69.30;;;;;;5024203;28;20060;-89
2023/10/01 16:53:56;;;;;;;15.20;5.30;;;19.10;69.70;;;;;;5024098;28;20041;-86
2023/10/01 16:56:23;;;;;;;14.98;5.63;;;19.10;69.90;;;;;;5023405;28;20072;-88
2023/10/01 16:58:51;;;;;;;15.77;5.85;;;19.10;70.20;;;;;;5027655;28;20021;-88
2023/10/01 17:01:19;;;;;;;19.75;5.22;;;19.00;70.40;;;;;;5008137;28;20042;-88
2023/10/01 17:04:05;;;;;;;16.85;5.30;;;19.00;70.70;;;;;;5023235;28;20037;-87
2023/10/01 17:06:35;;;;;;;18.38;4.95;;;19.00;71.00;;;;;;5007170;28;20029;-88
2023/10/01 17:09:13;;;;;;;12.50;5.05;;;19.00;71.20;;;;;;5019439;28;20026;-88
2023/10/01 17:11:40;;;;;;;15.57;5.63;;;19.00;71.40;;;;;;5026025;28;20013;-88
2023/10/01 17:14:13;;;;;;;16.45;5.93;;;18.90;71.50;;;;;;5005562;28;20461;-88
2023/10/01 17:16:44;;;;;;;16.52;6.38;;;18.90;71.50;;;;;;5025684;28;20021;-87
2023/10/01 17:19:10;;;;;;;19.20;5.85;;;18.90;71.70;;;;;;5024309;28;20029;-88
2023/10/01 17:21:42;;;;;;;16.50;5.63;;;18.80;72.50;;;;;;5026440;28;20033;-88
2023/10/01 17:24:22;;;;;;;15.23;5.90;;;18.80;71.90;;;;;;5025490;28;20030;-87
2023/10/01 17:26:48;;;;;;;19.85;5.47;;;18.80;72.00;;;;;;5023655;28;20492;-88
2023/10/01 17:29:25;;;;;;;18.67;5.72;;;18.80;72.30;;;;;;5022783;28;20040;-87
2023/10/01 17:31:55;;;;;;;16.05;5.70;;;18.80;72.60;;;;;;5008403;28;20033;-87
2023/10/01 17:34:25;;;;;;;15.45;4.95;;;18.70;72.90;;;;;;5026380;28;20041;-86
2023/10/01 17:36:53;;;;;;;;;;;18.80;73.20;;;;;;5026422;28;20029;-86
2023/10/01 17:39:20;;;;;;;19.42;5.30;;;18.70;73.50;;;;;;5022324;28;20376;-89